sensor_id;sensor_type;location;lat;lon;timestamp;temperature;humidity
12039;DHT22;6080;48.818;9.526;2022-12-10T00:01:13;1.80;99.90
12039;DHT22;6080;48.818;9.526;2022-12-10T00:03:40;1.90;99.90
12039;DHT22;6080;48.818;9.526;2022-12-10T00:06:08;1.90;99.90
12039;DHT22;6080;48.818;9.526;2022-12-10T00:08:35;1.90;99.90
12039;DHT22;6080;48.818;9.526;2022-12-10T00:11:07;1.90;99.90
12039;DHT22;6080;48.818;9.526;2022-12-10T00:13:34;2.00;99.90
12039;DHT22;6080;48.818;9.526;2022-12-10T00:16:01;2.00;99.90
12039;DHT22;6080;48.818;9.526;2022-12-10T00:18:27;2.00;99.90
12039;DHT22;6080;48.818;9.526;2022-12-10T00:20:53;2.00;99.90
12039;DHT22;6080;48.818;9.526;2022-12-10T00:23:19;2.00;99.90
12039;DHT22;6080;48.818;9.526;2022-12-10T00:25:45;1.90;99.90
12039;DHT22;6080;48.818;9.526;2022-12-10T00:28:11;1.90;99.90
12039;DHT22;6080;48.818;9.526;2022-12-10T00:30:37;1.90;99.90
12039;DHT22;6080;48.818;9.526;2022-12-10T00:33:05;1.90;99.90
12039;DHT22;6080;48.818;9.526;2022-12-10T00:35:34;1.90;99.90
12039;DHT22;6080;48.818;9.526;2022-12-10T00:38:00;1.80;99.90
12039;DHT22;6080;48.818;9.526;2022-12-10T00:40:26;1.80;99.90
12039;DHT22;6080;48.818;9.526;2022-12-10T00:42:51;1.90;99.90
12039;DHT22;6080;48.818;9.526;2022-12-10T00:45:17;1.80;99.90
12039;DHT22;6080;48.818;9.526;2022-12-10T00:47:43;1.80;99.90
12039;DHT22;6080;48.818;9.526;2022-12-10T00:50:09;1.80;99.90
12039;DHT22;6080;48.818;9.526;2022-12-10T00:52:35;1.80;99.90
12039;DHT22;6080;48.818;9.526;2022-12-10T00:55:01;1.80;99.90
12039;DHT22;6080;48.818;9.526;2022-12-10T00:57:27;1.80;99.90
12039;DHT22;6080;48.818;9.526;2022-12-10T00:59:52;1.80;99.90
12039;DHT22;6080;48.818;9.526;2022-12-10T01:02:19;1.80;99.90
12039;DHT22;6080;48.818;9.526;2022-12-10T01:04:45;1.80;99.90
12039;DHT22;6080;48.818;9.526;2022-12-10T01:07:10;1.80;99.90
12039;DHT22;6080;48.818;9.526;2022-12-10T01:09:36;1.70;99.90
12039;DHT22;6080;48.818;9.526;2022-12-10T01:12:02;1.80;99.90
12039;DHT22;6080;48.818;9.526;2022-12-10T01:14:33;1.80;99.90
12039;DHT22;6080;48.818;9.526;2022-12-10T01:17:02;1.80;99.90
12039;DHT22;6080;48.818;9.526;2022-12-10T01:19:28;1.80;99.90
12039;DHT22;6080;48.818;9.526;2022-12-10T01:21:55;1.80;99.90
12039;DHT22;6080;48.818;9.526;2022-12-10T01:24:23;1.80;99.90
12039;DHT22;6080;48.818;9.526;2022-12-10T01:26:49;1.80;99.90
12039;DHT22;6080;48.818;9.526;2022-12-10T01:29:15;1.90;99.90
12039;DHT22;6080;48.818;9.526;2022-12-10T01:31:41;1.90;99.90
12039;DHT22;6080;48.818;9.526;2022-12-10T01:34:09;1.90;99.90
12039;DHT22;6080;48.818;9.526;2022-12-10T01:36:42;1.90;99.90
12039;DHT22;6080;48.818;9.526;2022-12-10T01:39:10;1.90;99.90
12039;DHT22;6080;48.818;9.526;2022-12-10T01:41:42;1.90;99.90
12039;DHT22;6080;48.818;9.526;2022-12-10T01:46:39;1.80;99.90
12039;DHT22;6080;48.818;9.526;2022-12-10T01:49:07;1.90;99.90
12039;DHT22;6080;48.818;9.526;2022-12-10T01:51:36;1.80;99.90
12039;DHT22;6080;48.818;9.526;2022-12-10T01:54:04;1.90;99.90
12039;DHT22;6080;48.818;9.526;2022-12-10T01:56:31;1.80;99.90
12039;DHT22;6080;48.818;9.526;2022-12-10T01:58:57;1.80;99.90
12039;DHT22;6080;48.818;9.526;2022-12-10T02:01:37;1.80;99.90
12039;DHT22;6080;48.818;9.526;2022-12-10T02:09:27;1.80;99.90
12039;DHT22;6080;48.818;9.526;2022-12-10T02:12:14;1.80;99.90
12039;DHT22;6080;48.818;9.526;2022-12-10T02:17:18;1.80;99.90
12039;DHT22;6080;48.818;9.526;2022-12-10T02:22:42;1.80;99.90
12039;DHT22;6080;48.818;9.526;2022-12-10T02:25:12;1.70;99.90
12039;DHT22;6080;48.818;9.526;2022-12-10T02:28:06;1.80;99.90
12039;DHT22;6080;48.818;9.526;2022-12-10T02:30:35;1.80;99.90
12039;DHT22;6080;48.818;9.526;2022-12-10T02:33:03;1.80;99.90
12039;DHT22;6080;48.818;9.526;2022-12-10T02:35:33;1.80;99.90
12039;DHT22;6080;48.818;9.526;2022-12-10T02:38:13;1.70;99.90
12039;DHT22;6080;48.818;9.526;2022-12-10T02:40:47;1.70;99.90
12039;DHT22;6080;48.818;9.526;2022-12-10T02:43:14;1.70;99.90
12039;DHT22;6080;48.818;9.526;2022-12-10T02:45:42;1.70;99.90
12039;DHT22;6080;48.818;9.526;2022-12-10T02:48:09;1.70;99.90
12039;DHT22;6080;48.818;9.526;2022-12-10T02:50:36;1.70;99.90
12039;DHT22;6080;48.818;9.526;2022-12-10T02:53:02;1.70;99.90
12039;DHT22;6080;48.818;9.526;2022-12-10T02:55:39;1.70;99.90
12039;DHT22;6080;48.818;9.526;2022-12-10T02:58:23;1.70;99.90
12039;DHT22;6080;48.818;9.526;2022-12-10T03:03:59;1.70;99.90
12039;DHT22;6080;48.818;9.526;2022-12-10T03:06:32;1.70;99.90
12039;DHT22;6080;48.818;9.526;2022-12-10T03:09:02;1.70;99.90
12039;DHT22;6080;48.818;9.526;2022-12-10T03:11:30;1.70;99.90
12039;DHT22;6080;48.818;9.526;2022-12-10T03:17:00;1.70;99.90
12039;DHT22;6080;48.818;9.526;2022-12-10T03:19:39;1.70;99.90
12039;DHT22;6080;48.818;9.526;2022-12-10T03:22:07;1.60;99.90
12039;DHT22;6080;48.818;9.526;2022-12-10T03:24:35;1.50;99.90
12039;DHT22;6080;48.818;9.526;2022-12-10T03:27:03;1.50;99.90
12039;DHT22;6080;48.818;9.526;2022-12-10T03:29:33;1.50;99.90
12039;DHT22;6080;48.818;9.526;2022-12-10T03:32:01;1.50;99.90
12039;DHT22;6080;48.818;9.526;2022-12-10T03:34:27;1.50;99.90
12039;DHT22;6080;48.818;9.526;2022-12-10T03:36:54;1.40;99.90
12039;DHT22;6080;48.818;9.526;2022-12-10T03:39:20;1.40;99.90
12039;DHT22;6080;48.818;9.526;2022-12-10T03:41:46;1.50;99.90
12039;DHT22;6080;48.818;9.526;2022-12-10T03:44:12;1.50;99.90
12039;DHT22;6080;48.818;9.526;2022-12-10T03:46:38;1.40;99.90
12039;DHT22;6080;48.818;9.526;2022-12-10T03:49:05;1.40;99.90
12039;DHT22;6080;48.818;9.526;2022-12-10T03:51:30;1.40;99.90
12039;DHT22;6080;48.818;9.526;2022-12-10T03:53:56;1.30;99.90
12039;DHT22;6080;48.818;9.526;2022-12-10T03:56:22;1.30;99.90
12039;DHT22;6080;48.818;9.526;2022-12-10T03:58:48;1.30;99.90
12039;DHT22;6080;48.818;9.526;2022-12-10T04:01:14;1.30;99.90
12039;DHT22;6080;48.818;9.526;2022-12-10T04:03:42;1.30;99.90
12039;DHT22;6080;48.818;9.526;2022-12-10T04:06:13;1.30;99.90
12039;DHT22;6080;48.818;9.526;2022-12-10T04:08:39;1.20;99.90
12039;DHT22;6080;48.818;9.526;2022-12-10T04:11:08;1.20;99.90
12039;DHT22;6080;48.818;9.526;2022-12-10T04:13:35;1.20;99.90
12039;DHT22;6080;48.818;9.526;2022-12-10T04:16:19;1.20;99.90
12039;DHT22;6080;48.818;9.526;2022-12-10T04:18:57;1.30;99.90
12039;DHT22;6080;48.818;9.526;2022-12-10T04:21:23;1.30;99.90
12039;DHT22;6080;48.818;9.526;2022-12-10T04:24:09;1.30;99.90
12039;DHT22;6080;48.818;9.526;2022-12-10T04:26:55;1.30;99.90
12039;DHT22;6080;48.818;9.526;2022-12-10T04:29:26;1.40;99.90
12039;DHT22;6080;48.818;9.526;2022-12-10T04:31:53;1.40;99.90
12039;DHT22;6080;48.818;9.526;2022-12-10T04:34:20;1.40;99.90
12039;DHT22;6080;48.818;9.526;2022-12-10T04:36:47;1.30;99.90
12039;DHT22;6080;48.818;9.526;2022-12-10T04:39:13;1.40;99.90
12039;DHT22;6080;48.818;9.526;2022-12-10T04:41:41;1.30;99.90
12039;DHT22;6080;48.818;9.526;2022-12-10T04:44:07;1.30;99.90
12039;DHT22;6080;48.818;9.526;2022-12-10T04:46:33;1.30;99.90
12039;DHT22;6080;48.818;9.526;2022-12-10T04:48:59;1.40;99.90
12039;DHT22;6080;48.818;9.526;2022-12-10T04:51:25;1.40;99.90
12039;DHT22;6080;48.818;9.526;2022-12-10T04:53:51;1.40;99.90
12039;DHT22;6080;48.818;9.526;2022-12-10T04:56:17;1.40;99.90
12039;DHT22;6080;48.818;9.526;2022-12-10T04:58:42;1.40;99.90
12039;DHT22;6080;48.818;9.526;2022-12-10T05:01:10;1.40;99.90
12039;DHT22;6080;48.818;9.526;2022-12-10T05:03:36;1.40;99.90
12039;DHT22;6080;48.818;9.526;2022-12-10T05:06:08;1.40;99.90
12039;DHT22;6080;48.818;9.526;2022-12-10T05:08:36;1.40;99.90
12039;DHT22;6080;48.818;9.526;2022-12-10T05:11:05;1.30;99.90
12039;DHT22;6080;48.818;9.526;2022-12-10T05:13:31;1.30;99.90
12039;DHT22;6080;48.818;9.526;2022-12-10T05:15:57;1.30;99.90
12039;DHT22;6080;48.818;9.526;2022-12-10T05:18:23;1.30;99.90
12039;DHT22;6080;48.818;9.526;2022-12-10T05:20:49;1.40;99.90
12039;DHT22;6080;48.818;9.526;2022-12-10T05:23:15;1.40;99.90
12039;DHT22;6080;48.818;9.526;2022-12-10T05:26:03;1.40;99.90
12039;DHT22;6080;48.818;9.526;2022-12-10T05:28:32;1.50;99.90
12039;DHT22;6080;48.818;9.526;2022-12-10T05:30:58;1.50;99.90
12039;DHT22;6080;48.818;9.526;2022-12-10T05:33:25;1.50;99.90
12039;DHT22;6080;48.818;9.526;2022-12-10T05:36:03;1.50;99.90
12039;DHT22;6080;48.818;9.526;2022-12-10T05:38:30;1.50;99.90
12039;DHT22;6080;48.818;9.526;2022-12-10T05:41:04;1.50;99.90
12039;DHT22;6080;48.818;9.526;2022-12-10T05:43:31;1.50;99.90
12039;DHT22;6080;48.818;9.526;2022-12-10T05:46:05;1.40;99.90
12039;DHT22;6080;48.818;9.526;2022-12-10T05:48:32;1.40;99.90
12039;DHT22;6080;48.818;9.526;2022-12-10T05:50:58;1.40;99.90
12039;DHT22;6080;48.818;9.526;2022-12-10T05:53:24;1.50;99.90
12039;DHT22;6080;48.818;9.526;2022-12-10T05:55:50;1.40;99.90
12039;DHT22;6080;48.818;9.526;2022-12-10T05:58:24;1.40;99.90
12039;DHT22;6080;48.818;9.526;2022-12-10T06:00:50;1.40;99.90
12039;DHT22;6080;48.818;9.526;2022-12-10T06:03:15;1.40;99.90
12039;DHT22;6080;48.818;9.526;2022-12-10T06:05:41;1.50;99.90
12039;DHT22;6080;48.818;9.526;2022-12-10T06:08:07;1.50;99.90
12039;DHT22;6080;48.818;9.526;2022-12-10T06:10:34;1.50;99.90
12039;DHT22;6080;48.818;9.526;2022-12-10T06:13:01;1.50;99.90
12039;DHT22;6080;48.818;9.526;2022-12-10T06:15:27;1.50;99.90
12039;DHT22;6080;48.818;9.526;2022-12-10T06:17:54;1.50;99.90
12039;DHT22;6080;48.818;9.526;2022-12-10T06:20:20;1.50;99.90
12039;DHT22;6080;48.818;9.526;2022-12-10T06:22:46;1.60;99.90
12039;DHT22;6080;48.818;9.526;2022-12-10T06:25:11;1.50;99.90
12039;DHT22;6080;48.818;9.526;2022-12-10T06:27:38;1.50;99.90
12039;DHT22;6080;48.818;9.526;2022-12-10T06:30:04;1.50;99.90
12039;DHT22;6080;48.818;9.526;2022-12-10T06:32:30;1.50;99.90
12039;DHT22;6080;48.818;9.526;2022-12-10T06:34:56;1.60;99.90
12039;DHT22;6080;48.818;9.526;2022-12-10T06:37:22;1.60;99.90
12039;DHT22;6080;48.818;9.526;2022-12-10T06:39:51;1.50;99.90
12039;DHT22;6080;48.818;9.526;2022-12-10T06:42:18;1.50;99.90
12039;DHT22;6080;48.818;9.526;2022-12-10T06:44:44;1.60;99.90
12039;DHT22;6080;48.818;9.526;2022-12-10T06:47:10;1.60;99.90
12039;DHT22;6080;48.818;9.526;2022-12-10T06:49:36;1.60;99.90
12039;DHT22;6080;48.818;9.526;2022-12-10T06:52:02;1.60;99.90
12039;DHT22;6080;48.818;9.526;2022-12-10T06:54:28;1.60;99.90
12039;DHT22;6080;48.818;9.526;2022-12-10T06:56:55;1.60;99.90
12039;DHT22;6080;48.818;9.526;2022-12-10T06:59:20;1.60;99.90
12039;DHT22;6080;48.818;9.526;2022-12-10T07:01:46;1.50;99.90
12039;DHT22;6080;48.818;9.526;2022-12-10T07:04:12;1.60;99.90
12039;DHT22;6080;48.818;9.526;2022-12-10T07:06:39;1.60;99.90
12039;DHT22;6080;48.818;9.526;2022-12-10T07:09:04;1.60;99.90
12039;DHT22;6080;48.818;9.526;2022-12-10T07:11:31;1.60;99.90
12039;DHT22;6080;48.818;9.526;2022-12-10T07:13:57;1.60;99.90
12039;DHT22;6080;48.818;9.526;2022-12-10T07:16:26;1.60;99.90
12039;DHT22;6080;48.818;9.526;2022-12-10T07:18:53;1.60;99.90
12039;DHT22;6080;48.818;9.526;2022-12-10T07:23:55;1.60;99.90
12039;DHT22;6080;48.818;9.526;2022-12-10T07:26:34;1.50;99.90
12039;DHT22;6080;48.818;9.526;2022-12-10T07:29:02;1.50;99.90
12039;DHT22;6080;48.818;9.526;2022-12-10T07:31:28;1.50;99.90
12039;DHT22;6080;48.818;9.526;2022-12-10T07:33:56;1.60;99.90
12039;DHT22;6080;48.818;9.526;2022-12-10T07:36:23;1.60;99.90
12039;DHT22;6080;48.818;9.526;2022-12-10T07:38:50;1.60;99.90
12039;DHT22;6080;48.818;9.526;2022-12-10T07:41:16;1.60;99.90
12039;DHT22;6080;48.818;9.526;2022-12-10T07:43:44;1.60;99.90
12039;DHT22;6080;48.818;9.526;2022-12-10T07:48:45;1.70;99.90
12039;DHT22;6080;48.818;9.526;2022-12-10T07:51:10;1.70;99.90
12039;DHT22;6080;48.818;9.526;2022-12-10T07:53:37;1.70;99.90
12039;DHT22;6080;48.818;9.526;2022-12-10T07:56:03;1.70;99.90
12039;DHT22;6080;48.818;9.526;2022-12-10T07:58:29;1.80;99.90
12039;DHT22;6080;48.818;9.526;2022-12-10T08:00:55;1.80;99.90
12039;DHT22;6080;48.818;9.526;2022-12-10T08:03:21;1.80;99.90
12039;DHT22;6080;48.818;9.526;2022-12-10T08:05:47;1.80;99.90
12039;DHT22;6080;48.818;9.526;2022-12-10T08:08:12;1.90;99.90
12039;DHT22;6080;48.818;9.526;2022-12-10T08:10:39;1.90;99.90
12039;DHT22;6080;48.818;9.526;2022-12-10T08:13:05;1.90;99.90
12039;DHT22;6080;48.818;9.526;2022-12-10T08:15:31;2.00;99.90
12039;DHT22;6080;48.818;9.526;2022-12-10T08:17:57;2.10;99.90
12039;DHT22;6080;48.818;9.526;2022-12-10T08:20:24;2.20;99.90
12039;DHT22;6080;48.818;9.526;2022-12-10T08:22:50;2.20;99.90
12039;DHT22;6080;48.818;9.526;2022-12-10T08:25:17;2.30;99.90
12039;DHT22;6080;48.818;9.526;2022-12-10T08:27:43;2.30;99.90
12039;DHT22;6080;48.818;9.526;2022-12-10T08:30:09;2.40;99.90
12039;DHT22;6080;48.818;9.526;2022-12-10T08:32:35;2.40;99.90
12039;DHT22;6080;48.818;9.526;2022-12-10T08:35:00;2.40;99.90
12039;DHT22;6080;48.818;9.526;2022-12-10T08:37:26;2.50;99.90
12039;DHT22;6080;48.818;9.526;2022-12-10T08:39:52;2.50;99.90
12039;DHT22;6080;48.818;9.526;2022-12-10T08:42:18;2.50;99.90
12039;DHT22;6080;48.818;9.526;2022-12-10T08:44:43;2.50;99.90
12039;DHT22;6080;48.818;9.526;2022-12-10T08:47:09;2.50;99.90
12039;DHT22;6080;48.818;9.526;2022-12-10T08:49:35;2.60;99.90
12039;DHT22;6080;48.818;9.526;2022-12-10T08:52:01;2.60;99.90
12039;DHT22;6080;48.818;9.526;2022-12-10T08:54:26;2.60;99.90
12039;DHT22;6080;48.818;9.526;2022-12-10T08:56:52;2.70;99.90
12039;DHT22;6080;48.818;9.526;2022-12-10T08:59:18;2.80;99.90
12039;DHT22;6080;48.818;9.526;2022-12-10T09:01:44;2.80;99.90
12039;DHT22;6080;48.818;9.526;2022-12-10T09:04:10;2.90;99.90
12039;DHT22;6080;48.818;9.526;2022-12-10T09:06:35;2.90;99.90
12039;DHT22;6080;48.818;9.526;2022-12-10T09:09:01;2.90;99.90
12039;DHT22;6080;48.818;9.526;2022-12-10T09:11:32;2.90;99.90
12039;DHT22;6080;48.818;9.526;2022-12-10T09:13:59;2.90;99.90
12039;DHT22;6080;48.818;9.526;2022-12-10T09:16:29;2.90;99.90
12039;DHT22;6080;48.818;9.526;2022-12-10T09:18:56;2.90;99.90
12039;DHT22;6080;48.818;9.526;2022-12-10T09:21:22;2.90;99.90
12039;DHT22;6080;48.818;9.526;2022-12-10T09:23:49;3.00;99.90
12039;DHT22;6080;48.818;9.526;2022-12-10T09:26:16;3.10;99.90
12039;DHT22;6080;48.818;9.526;2022-12-10T09:28:42;3.20;99.90
12039;DHT22;6080;48.818;9.526;2022-12-10T09:31:09;3.30;99.90
12039;DHT22;6080;48.818;9.526;2022-12-10T09:33:36;3.30;99.90
12039;DHT22;6080;48.818;9.526;2022-12-10T09:36:04;3.30;99.90
12039;DHT22;6080;48.818;9.526;2022-12-10T09:38:34;3.30;99.90
12039;DHT22;6080;48.818;9.526;2022-12-10T09:41:02;3.30;99.90
12039;DHT22;6080;48.818;9.526;2022-12-10T09:51:42;4.00;99.90
12039;DHT22;6080;48.818;9.526;2022-12-10T09:54:29;4.30;99.90
12039;DHT22;6080;48.818;9.526;2022-12-10T09:56:57;4.40;99.90
12039;DHT22;6080;48.818;9.526;2022-12-10T09:59:30;4.50;99.90
12039;DHT22;6080;48.818;9.526;2022-12-10T10:02:16;4.40;99.90
12039;DHT22;6080;48.818;9.526;2022-12-10T10:04:44;4.30;99.90
12039;DHT22;6080;48.818;9.526;2022-12-10T10:07:20;4.20;99.90
12039;DHT22;6080;48.818;9.526;2022-12-10T10:09:47;4.10;99.90
12039;DHT22;6080;48.818;9.526;2022-12-10T10:12:14;3.90;99.90
12039;DHT22;6080;48.818;9.526;2022-12-10T10:14:43;3.80;99.90
12039;DHT22;6080;48.818;9.526;2022-12-10T10:17:19;3.70;99.90
12039;DHT22;6080;48.818;9.526;2022-12-10T10:19:46;3.70;99.90
12039;DHT22;6080;48.818;9.526;2022-12-10T10:22:12;3.70;99.90
12039;DHT22;6080;48.818;9.526;2022-12-10T10:24:42;3.80;99.90
12039;DHT22;6080;48.818;9.526;2022-12-10T10:29:49;3.90;99.90
12039;DHT22;6080;48.818;9.526;2022-12-10T10:32:26;3.80;99.90
12039;DHT22;6080;48.818;9.526;2022-12-10T10:34:58;3.80;99.90
12039;DHT22;6080;48.818;9.526;2022-12-10T10:37:25;3.70;99.90
12039;DHT22;6080;48.818;9.526;2022-12-10T10:39:52;3.70;99.90
12039;DHT22;6080;48.818;9.526;2022-12-10T10:42:40;3.70;99.90
12039;DHT22;6080;48.818;9.526;2022-12-10T10:50:40;3.80;99.90
12039;DHT22;6080;48.818;9.526;2022-12-10T10:56:09;4.00;99.90
12039;DHT22;6080;48.818;9.526;2022-12-10T10:58:56;4.10;99.90
12039;DHT22;6080;48.818;9.526;2022-12-10T11:01:26;4.30;99.90
12039;DHT22;6080;48.818;9.526;2022-12-10T11:04:08;4.20;99.90
12039;DHT22;6080;48.818;9.526;2022-12-10T11:06:34;4.30;99.90
12039;DHT22;6080;48.818;9.526;2022-12-10T11:08:59;4.40;99.90
12039;DHT22;6080;48.818;9.526;2022-12-10T11:14:24;4.50;99.90
12039;DHT22;6080;48.818;9.526;2022-12-10T11:16:52;4.60;99.90
12039;DHT22;6080;48.818;9.526;2022-12-10T11:19:25;4.60;99.90
12039;DHT22;6080;48.818;9.526;2022-12-10T11:21:52;4.50;99.90
12039;DHT22;6080;48.818;9.526;2022-12-10T11:24:19;4.40;99.90
12039;DHT22;6080;48.818;9.526;2022-12-10T11:29:43;4.10;99.90
12039;DHT22;6080;48.818;9.526;2022-12-10T11:38:00;3.80;99.90
12039;DHT22;6080;48.818;9.526;2022-12-10T11:43:32;3.90;99.90
12039;DHT22;6080;48.818;9.526;2022-12-10T11:51:31;4.10;99.90
12039;DHT22;6080;48.818;9.526;2022-12-10T11:56:48;4.10;99.90
12039;DHT22;6080;48.818;9.526;2022-12-10T11:59:23;4.20;99.90
12039;DHT22;6080;48.818;9.526;2022-12-10T12:04:52;4.20;99.90
12039;DHT22;6080;48.818;9.526;2022-12-10T12:13:00;4.70;99.90
12039;DHT22;6080;48.818;9.526;2022-12-10T12:15:40;4.80;99.90
12039;DHT22;6080;48.818;9.526;2022-12-10T12:20:44;4.70;99.90
12039;DHT22;6080;48.818;9.526;2022-12-10T12:25:47;4.80;99.90
12039;DHT22;6080;48.818;9.526;2022-12-10T12:31:01;4.80;99.90
12039;DHT22;6080;48.818;9.526;2022-12-10T12:33:41;4.70;99.90
12039;DHT22;6080;48.818;9.526;2022-12-10T12:36:22;4.50;99.90
12039;DHT22;6080;48.818;9.526;2022-12-10T12:44:19;4.20;99.90
12039;DHT22;6080;48.818;9.526;2022-12-10T12:46:48;4.10;99.90
12039;DHT22;6080;48.818;9.526;2022-12-10T12:49:32;4.20;99.90
12039;DHT22;6080;48.818;9.526;2022-12-10T12:54:44;4.00;99.90
12039;DHT22;6080;48.818;9.526;2022-12-10T12:57:32;4.00;99.90
12039;DHT22;6080;48.818;9.526;2022-12-10T13:00:25;4.00;99.90
12039;DHT22;6080;48.818;9.526;2022-12-10T13:05:40;4.10;99.90
12039;DHT22;6080;48.818;9.526;2022-12-10T13:13:35;3.90;99.90
12039;DHT22;6080;48.818;9.526;2022-12-10T13:22:07;3.80;99.90
12039;DHT22;6080;48.818;9.526;2022-12-10T13:29:58;3.90;99.90
12039;DHT22;6080;48.818;9.526;2022-12-10T13:37:36;3.70;99.90
12039;DHT22;6080;48.818;9.526;2022-12-10T13:42:37;3.70;99.90
12039;DHT22;6080;48.818;9.526;2022-12-10T13:47:53;3.60;99.90
12039;DHT22;6080;48.818;9.526;2022-12-10T14:01:21;3.50;99.90
12039;DHT22;6080;48.818;9.526;2022-12-10T14:06:33;3.50;99.90
12039;DHT22;6080;48.818;9.526;2022-12-10T14:12:06;3.50;99.90
12039;DHT22;6080;48.818;9.526;2022-12-10T14:14:38;3.50;99.90
12039;DHT22;6080;48.818;9.526;2022-12-10T14:17:13;3.40;99.90
12039;DHT22;6080;48.818;9.526;2022-12-10T14:19:42;3.30;99.90
12039;DHT22;6080;48.818;9.526;2022-12-10T14:22:14;3.20;99.90
12039;DHT22;6080;48.818;9.526;2022-12-10T14:24:41;3.20;99.90
12039;DHT22;6080;48.818;9.526;2022-12-10T14:27:18;3.20;99.90
12039;DHT22;6080;48.818;9.526;2022-12-10T14:29:49;3.20;99.90
12039;DHT22;6080;48.818;9.526;2022-12-10T14:32:18;3.20;99.90
12039;DHT22;6080;48.818;9.526;2022-12-10T14:34:50;3.20;99.90
12039;DHT22;6080;48.818;9.526;2022-12-10T14:37:19;3.10;99.90
12039;DHT22;6080;48.818;9.526;2022-12-10T14:39:48;3.00;99.90
12039;DHT22;6080;48.818;9.526;2022-12-10T14:42:16;3.00;99.90
12039;DHT22;6080;48.818;9.526;2022-12-10T14:44:42;3.00;99.90
12039;DHT22;6080;48.818;9.526;2022-12-10T14:47:15;2.90;99.90
12039;DHT22;6080;48.818;9.526;2022-12-10T14:49:44;2.90;99.90
12039;DHT22;6080;48.818;9.526;2022-12-10T14:52:16;2.90;99.90
12039;DHT22;6080;48.818;9.526;2022-12-10T14:54:44;2.80;99.90
12039;DHT22;6080;48.818;9.526;2022-12-10T14:57:17;2.80;99.90
12039;DHT22;6080;48.818;9.526;2022-12-10T15:02:22;2.80;99.90
12039;DHT22;6080;48.818;9.526;2022-12-10T15:04:50;2.80;99.90
12039;DHT22;6080;48.818;9.526;2022-12-10T15:07:30;2.70;99.90
12039;DHT22;6080;48.818;9.526;2022-12-10T15:10:02;2.70;99.90
12039;DHT22;6080;48.818;9.526;2022-12-10T15:12:39;2.70;99.90
12039;DHT22;6080;48.818;9.526;2022-12-10T15:15:38;2.70;99.90
12039;DHT22;6080;48.818;9.526;2022-12-10T15:26:22;2.60;99.90
12039;DHT22;6080;48.818;9.526;2022-12-10T15:28:50;2.60;99.90
12039;DHT22;6080;48.818;9.526;2022-12-10T15:34:06;2.60;99.90
12039;DHT22;6080;48.818;9.526;2022-12-10T15:36:41;2.60;99.90
12039;DHT22;6080;48.818;9.526;2022-12-10T15:41:53;2.50;99.90
12039;DHT22;6080;48.818;9.526;2022-12-10T15:47:08;2.40;99.90
12039;DHT22;6080;48.818;9.526;2022-12-10T15:49:35;2.40;99.90
12039;DHT22;6080;48.818;9.526;2022-12-10T15:52:01;2.40;99.90
12039;DHT22;6080;48.818;9.526;2022-12-10T15:54:34;2.30;99.90
12039;DHT22;6080;48.818;9.526;2022-12-10T15:59:40;2.30;99.90
12039;DHT22;6080;48.818;9.526;2022-12-10T16:05:02;2.30;99.90
12039;DHT22;6080;48.818;9.526;2022-12-10T16:07:28;2.20;99.90
12039;DHT22;6080;48.818;9.526;2022-12-10T16:09:53;2.20;99.90
12039;DHT22;6080;48.818;9.526;2022-12-10T16:12:19;2.10;99.90
12039;DHT22;6080;48.818;9.526;2022-12-10T16:14:51;2.00;99.90
12039;DHT22;6080;48.818;9.526;2022-12-10T16:17:19;1.90;99.90
12039;DHT22;6080;48.818;9.526;2022-12-10T16:19:45;1.80;99.90
12039;DHT22;6080;48.818;9.526;2022-12-10T16:22:11;1.70;99.90
12039;DHT22;6080;48.818;9.526;2022-12-10T16:24:36;1.70;99.90
12039;DHT22;6080;48.818;9.526;2022-12-10T16:27:12;1.60;99.90
12039;DHT22;6080;48.818;9.526;2022-12-10T16:29:39;1.50;99.90
12039;DHT22;6080;48.818;9.526;2022-12-10T16:32:05;1.50;99.90
12039;DHT22;6080;48.818;9.526;2022-12-10T16:34:30;1.40;99.90
12039;DHT22;6080;48.818;9.526;2022-12-10T16:36:56;1.40;99.90
12039;DHT22;6080;48.818;9.526;2022-12-10T16:39:22;1.40;99.90
12039;DHT22;6080;48.818;9.526;2022-12-10T16:41:52;1.30;99.90
12039;DHT22;6080;48.818;9.526;2022-12-10T16:44:19;1.40;99.90
12039;DHT22;6080;48.818;9.526;2022-12-10T16:46:45;1.30;99.90
12039;DHT22;6080;48.818;9.526;2022-12-10T16:49:10;1.30;99.90
12039;DHT22;6080;48.818;9.526;2022-12-10T16:51:36;1.30;99.90
12039;DHT22;6080;48.818;9.526;2022-12-10T16:54:03;1.30;99.90
12039;DHT22;6080;48.818;9.526;2022-12-10T16:56:29;1.30;99.90
12039;DHT22;6080;48.818;9.526;2022-12-10T16:58:55;1.30;99.90
12039;DHT22;6080;48.818;9.526;2022-12-10T17:01:28;1.30;99.90
12039;DHT22;6080;48.818;9.526;2022-12-10T17:03:55;1.20;99.90
12039;DHT22;6080;48.818;9.526;2022-12-10T17:06:21;1.20;99.90
12039;DHT22;6080;48.818;9.526;2022-12-10T17:08:47;1.20;99.90
12039;DHT22;6080;48.818;9.526;2022-12-10T17:11:17;1.30;99.90
12039;DHT22;6080;48.818;9.526;2022-12-10T17:14:03;1.30;99.90
12039;DHT22;6080;48.818;9.526;2022-12-10T17:16:31;1.40;99.90
12039;DHT22;6080;48.818;9.526;2022-12-10T17:18:57;1.40;99.90
12039;DHT22;6080;48.818;9.526;2022-12-10T17:21:23;1.40;99.90
12039;DHT22;6080;48.818;9.526;2022-12-10T17:23:49;1.30;99.90
12039;DHT22;6080;48.818;9.526;2022-12-10T17:26:28;1.30;99.90
12039;DHT22;6080;48.818;9.526;2022-12-10T17:29:06;1.30;99.90
12039;DHT22;6080;48.818;9.526;2022-12-10T17:31:32;1.30;99.90
12039;DHT22;6080;48.818;9.526;2022-12-10T17:33:58;1.30;99.90
12039;DHT22;6080;48.818;9.526;2022-12-10T17:36:24;1.30;99.90
12039;DHT22;6080;48.818;9.526;2022-12-10T17:38:50;1.20;99.90
12039;DHT22;6080;48.818;9.526;2022-12-10T17:41:15;1.20;99.90
12039;DHT22;6080;48.818;9.526;2022-12-10T17:43:42;1.20;99.90
12039;DHT22;6080;48.818;9.526;2022-12-10T17:46:10;1.20;99.90
12039;DHT22;6080;48.818;9.526;2022-12-10T17:48:37;1.20;99.90
12039;DHT22;6080;48.818;9.526;2022-12-10T17:51:03;1.20;99.90
12039;DHT22;6080;48.818;9.526;2022-12-10T17:53:28;1.20;99.90
12039;DHT22;6080;48.818;9.526;2022-12-10T17:55:58;1.20;99.90
12039;DHT22;6080;48.818;9.526;2022-12-10T17:58:25;1.10;99.90
12039;DHT22;6080;48.818;9.526;2022-12-10T18:00:52;1.10;99.90
12039;DHT22;6080;48.818;9.526;2022-12-10T18:03:19;1.20;99.90
12039;DHT22;6080;48.818;9.526;2022-12-10T18:05:45;1.20;99.90
12039;DHT22;6080;48.818;9.526;2022-12-10T18:08:15;1.30;99.90
12039;DHT22;6080;48.818;9.526;2022-12-10T18:10:43;1.30;99.90
12039;DHT22;6080;48.818;9.526;2022-12-10T18:13:09;1.20;99.90
12039;DHT22;6080;48.818;9.526;2022-12-10T18:15:35;1.20;99.90
12039;DHT22;6080;48.818;9.526;2022-12-10T18:18:01;1.20;99.90
12039;DHT22;6080;48.818;9.526;2022-12-10T18:20:31;1.20;99.90
12039;DHT22;6080;48.818;9.526;2022-12-10T18:22:59;1.10;99.90
12039;DHT22;6080;48.818;9.526;2022-12-10T18:25:25;1.10;99.90
12039;DHT22;6080;48.818;9.526;2022-12-10T18:27:52;1.00;99.90
12039;DHT22;6080;48.818;9.526;2022-12-10T18:30:22;1.00;99.90
12039;DHT22;6080;48.818;9.526;2022-12-10T18:32:49;0.90;99.90
12039;DHT22;6080;48.818;9.526;2022-12-10T18:35:15;0.90;99.90
12039;DHT22;6080;48.818;9.526;2022-12-10T18:37:41;1.00;99.90
12039;DHT22;6080;48.818;9.526;2022-12-10T18:40:14;1.00;99.90
12039;DHT22;6080;48.818;9.526;2022-12-10T18:42:40;1.00;99.90
12039;DHT22;6080;48.818;9.526;2022-12-10T18:45:06;1.10;99.90
12039;DHT22;6080;48.818;9.526;2022-12-10T18:47:31;1.10;99.90
12039;DHT22;6080;48.818;9.526;2022-12-10T18:49:57;1.00;99.90
12039;DHT22;6080;48.818;9.526;2022-12-10T18:52:23;1.00;99.90
12039;DHT22;6080;48.818;9.526;2022-12-10T18:54:49;1.00;99.90